PUS weather

Gimhae International Airport
Busan, Busan Gwang'yeogsi, South Korea

Public forecast

Using degrees Celsius for public forecast. Weather courtesy of forecast.io.

METAR (pilot weather report)

Retrieved 2019/03/20 06:00 UTC (51 minutes ago):

RKPK 200600Z 17007KT 4800 BR NSC 16/12 Q1014

TAF (pilot weather forecast)

Retrieved 2019/03/20 06:00 UTC (51 minutes ago):

TAF RKPK 200500Z 2006/2112 18008KT 6000 NSC TN13/2021Z TX22/2106Z BECMG 2009/2010 18006G16KT 4800 -RA BR SCT015 OVC030 BECMG 2012/2013 18010G20KT 3200 RA BR BKN015 OVC030 BECMG 2018/2019 21010G20KT 4800 BECMG 2022/2023 33006G16KT 8000 NSW BKN030 BECMG 2100/2101 9999 SCT030